Airfield :
LOGIN :

Register | Disclaimer

   EN    FR    IT 

 










Legend :    VFR   Marginal VFR   IFR   Intensive IFR   Very Intensive IFR
Visi :
Ceiling :
>= 8 km
>= 3000ft
5 to 8 km
1000 to 3000 ft
1500m to 5 km
500 to 1000 ft
800 to 1500m
200 to 500 ft
< 800m
< 200 ft
Symbols :   Thunderstorms  Fog  Heavy snow  Heavy precipitations  Wind > 20 kt
SIGMETs :     Misc.  Thunderstorms  Icing  Turbulence  Mountain Waves  Volcanic Ashes






- Airport Elevation : -11 ft
- IATA code : AMS


EHAM - Amsterdam Schiphol

CURRENT METAR :
  • 290425Z 30006KT 270V330 9999 VCSH FEW018CB SCT042 10/08 Q1016 NOSIG

EXPIRED METARs :
  • 290355Z 34006KT 300V360 9999 VCSH FEW018TCU SCT040 10/08 Q1017 NOSIG
  • 290325Z 34006KT 310V010 9999 -SHRA FEW012 FEW020TCU BKN040 10/07 Q1017 NOSIG
  • 290255Z 32009KT 300V360 9999 FEW012 SCT020TCU BKN040 10/08 Q1017 NOSIG
  • 290225Z 33011KT 9999 -SHRA FEW020TCU SCT045 10/07 Q1017 NOSIG
  • 290155Z 32007KT 9999 -SHRA FEW020TCU BKN045 10/07 Q1017 NOSIG

TAF TAF EHAM
Valid from the 29 at 00:00 until the 30 at 06:00 UTC


282306Z 2900/3006 33008KT 9999 SCT035
PROB40
TEMPO 2900/2911 6000 -SHRA SCT020TCU BKN025
BECMG 2908/2911 34014KT
BECMG 2917/2920 34006KT
BECMG 2923/3002 VRB03KT



MET'MAP, your aeronautical weather chart ! - Copyright ORBIFLY December 2007 - Disclaimer

ORBIFLY MET'MAP TEAM :

Programming & Development : Alexandra Zaïnal
Original concept : Baudouin d'Aumeries
Technical & hardware support : Manuel Goepfert
Assistance : Marc-Olivier Méhu

Contact : metmap@orbifly.com




SOURCES & CREDITS :

   NOAA